createdAt,value
2022-10-15T00:03:54.429Z,1115
2022-10-15T00:09:24.680Z,1120
2022-10-15T00:14:53.826Z,1110
2022-10-15T00:20:24.025Z,1112
2022-10-15T00:25:53.270Z,1110
2022-10-15T00:31:23.392Z,1104
2022-10-15T00:36:53.596Z,1101
2022-10-15T00:42:23.034Z,1103
2022-10-15T00:47:52.964Z,1104
2022-10-15T00:53:23.121Z,1103
2022-10-15T00:58:52.337Z,1098
2022-10-15T01:04:22.475Z,1089
2022-10-15T01:09:51.784Z,1086
2022-10-15T01:15:21.997Z,1085
2022-10-15T01:20:52.165Z,1087
2022-10-15T01:26:21.394Z,1076
2022-10-15T01:31:51.632Z,1048
2022-10-15T01:37:22.224Z,1053
2022-10-15T01:42:51.055Z,1071
2022-10-15T01:48:21.242Z,1076
2022-10-15T01:53:50.411Z,1078
2022-10-15T01:59:20.594Z,1080
2022-10-15T02:04:50.766Z,1071
2022-10-15T02:10:19.954Z,1071
2022-10-15T02:15:50.120Z,1068
2022-10-15T02:21:20.408Z,1059
2022-10-15T02:26:49.586Z,1066
2022-10-15T02:32:19.707Z,1062
2022-10-15T02:37:48.900Z,1064
2022-10-15T02:43:19.022Z,1060
2022-10-15T02:48:49.179Z,1062
2022-10-15T02:54:18.419Z,1062
2022-10-15T02:59:48.545Z,1063
2022-10-15T03:05:18.899Z,1059
2022-10-15T03:10:48.076Z,1053
2022-10-15T03:16:18.217Z,1052
2022-10-15T03:21:46.453Z,1054
2022-10-15T03:27:16.654Z,1048
2022-10-15T03:32:46.833Z,1046
2022-10-15T03:38:16.020Z,1049
2022-10-15T03:43:46.188Z,1050
2022-10-15T03:49:16.360Z,1051
2022-10-15T03:54:45.575Z,1048
2022-10-15T04:00:15.830Z,1046
2022-10-15T04:05:48.993Z,1041
2022-10-15T04:11:15.165Z,1037
2022-10-15T04:16:45.380Z,1038
2022-10-15T04:22:14.551Z,1041
2022-10-15T04:27:44.766Z,1038
2022-10-15T04:33:14.960Z,1046
2022-10-15T04:38:44.252Z,1034
2022-10-15T04:44:14.423Z,1033
2022-10-15T04:49:44.594Z,1031
2022-10-15T04:55:13.731Z,1023
2022-10-15T05:00:43.941Z,1023
2022-10-15T05:06:14.171Z,1030
2022-10-15T05:11:43.359Z,1021
2022-10-15T05:17:13.546Z,1024
2022-10-15T05:22:42.768Z,1022
2022-10-15T05:28:12.973Z,1025
2022-10-15T05:33:43.155Z,1023
2022-10-15T05:39:12.379Z,1024
2022-10-15T05:44:42.560Z,1068
2022-10-15T05:50:12.739Z,1110
2022-10-15T05:55:41.961Z,1487
2022-10-15T06:01:12.107Z,1571
2022-10-15T06:06:42.289Z,1634
2022-10-15T06:12:11.530Z,1584
2022-10-15T06:17:41.689Z,1593
2022-10-15T06:23:10.834Z,1594
2022-10-15T06:28:41.054Z,1600
2022-10-15T06:34:11.133Z,1611
2022-10-15T06:39:40.319Z,1625
2022-10-15T06:45:10.539Z,1638
2022-10-15T06:50:40.716Z,1652
2022-10-15T06:56:09.930Z,1666
2022-10-15T07:01:42.306Z,1693
2022-10-15T07:07:09.358Z,1719
2022-10-15T07:12:39.657Z,1728
2022-10-15T07:18:08.913Z,1735
2022-10-15T07:23:39.088Z,1748
2022-10-15T07:29:09.297Z,1747
2022-10-15T07:34:38.532Z,1764
2022-10-15T07:40:08.709Z,1757
2022-10-15T07:45:37.892Z,1743
2022-10-15T07:51:08.165Z,1740
2022-10-15T07:56:38.266Z,1742
2022-10-15T08:02:07.504Z,1732
2022-10-15T08:07:37.784Z,1727
2022-10-15T08:13:07.862Z,1718
2022-10-15T08:18:37.093Z,1712
2022-10-15T08:24:07.331Z,1703
2022-10-15T08:29:37.493Z,1687
2022-10-15T08:35:06.692Z,1675
2022-10-15T08:40:36.945Z,1670
2022-10-15T08:46:07.327Z,1664
2022-10-15T08:51:36.459Z,1652
2022-10-15T08:57:06.702Z,1635
2022-10-15T09:02:35.943Z,1615
2022-10-15T09:08:06.093Z,1608
2022-10-15T09:19:05.452Z,1583
2022-10-15T09:24:35.614Z,1569
2022-10-15T09:30:04.927Z,1549
2022-10-15T09:35:35.104Z,1532
2022-10-15T09:41:05.409Z,1505
2022-10-15T09:46:34.554Z,1490
2022-10-15T09:52:04.717Z,1452
2022-10-15T09:57:34.932Z,1428
2022-10-15T10:03:04.161Z,1424
2022-10-15T10:08:34.302Z,1412
2022-10-15T10:14:04.414Z,1393
2022-10-15T10:19:33.628Z,1368
2022-10-15T10:25:03.767Z,1344
2022-10-15T10:30:33.029Z,1317
2022-10-15T10:36:03.278Z,1315
2022-10-15T10:41:33.331Z,1309
2022-10-15T10:47:02.507Z,1296
2022-10-15T10:52:32.727Z,1285
2022-10-15T10:58:01.816Z,1272
2022-10-15T11:03:31.960Z,1268
2022-10-15T11:09:02.150Z,1244
2022-10-15T11:14:31.271Z,1232
2022-10-15T11:25:31.620Z,1190
2022-10-15T11:31:00.734Z,1173
2022-10-15T11:36:30.891Z,1162
2022-10-15T11:42:00.112Z,1152
2022-10-15T11:47:30.214Z,1127
2022-10-15T11:53:00.357Z,1116
2022-10-15T11:58:29.571Z,1100
2022-10-15T12:03:59.804Z,1091
2022-10-15T12:09:29.841Z,1075
2022-10-15T12:14:59.070Z,1067
2022-10-15T12:20:29.215Z,1055
2022-10-15T12:25:58.402Z,1040
2022-10-15T12:31:28.584Z,1028
2022-10-15T12:36:58.713Z,1004
2022-10-15T12:42:28.999Z,997
2022-10-15T12:47:59.193Z,988
2022-10-15T12:53:29.374Z,979
2022-10-15T12:58:58.494Z,962
2022-10-15T13:04:28.790Z,941
2022-10-15T13:09:57.923Z,930
2022-10-15T13:15:28.096Z,917
2022-10-15T13:20:58.386Z,904
2022-10-15T13:26:27.713Z,913
2022-10-15T13:31:57.621Z,899
2022-10-15T13:37:27.787Z,865
2022-10-15T13:42:56.949Z,870
2022-10-15T13:48:27.158Z,885
2022-10-15T13:53:57.285Z,858
2022-10-15T13:59:26.451Z,867
2022-10-15T14:04:56.591Z,872
2022-10-15T14:10:25.869Z,874
2022-10-15T14:15:55.990Z,870
2022-10-15T14:21:26.203Z,848
2022-10-15T14:26:55.395Z,845
2022-10-15T14:32:25.520Z,834
2022-10-15T14:37:55.686Z,827
2022-10-15T14:43:24.942Z,818
2022-10-15T14:48:55.010Z,803
2022-10-15T14:54:25.146Z,823
2022-10-15T14:59:54.376Z,822
2022-10-15T15:05:24.573Z,824
2022-10-15T15:10:53.759Z,821
2022-10-15T15:16:23.965Z,828
2022-10-15T15:21:54.140Z,831
2022-10-15T15:27:23.384Z,838
2022-10-15T15:32:53.473Z,773
2022-10-15T15:38:23.832Z,823
2022-10-15T15:43:52.806Z,820
2022-10-15T15:49:23.059Z,833
2022-10-15T15:54:52.179Z,850
2022-10-15T16:00:22.357Z,858
2022-10-15T16:05:52.644Z,858
2022-10-15T16:11:21.701Z,831
2022-10-15T16:16:51.897Z,819
2022-10-15T16:22:21.070Z,852
2022-10-15T16:27:51.177Z,852
2022-10-15T16:33:21.375Z,857
2022-10-15T16:38:50.706Z,860
2022-10-15T16:44:20.826Z,867
2022-10-15T16:49:50.961Z,872
2022-10-15T16:55:20.133Z,866
2022-10-15T17:00:50.265Z,884
2022-10-15T17:06:20.396Z,881
2022-10-15T17:11:49.537Z,894
2022-10-15T17:17:19.641Z,899
2022-10-15T17:22:48.780Z,909
2022-10-15T17:33:49.091Z,912
2022-10-15T17:39:18.263Z,926
2022-10-15T17:44:48.427Z,928
2022-10-15T17:50:18.552Z,940
2022-10-15T17:55:47.752Z,948
2022-10-15T18:01:27.926Z,952
2022-10-15T18:06:47.074Z,966
2022-10-15T18:12:17.223Z,974
2022-10-15T18:17:47.422Z,958
2022-10-15T18:23:16.556Z,948
2022-10-15T18:28:46.780Z,954
2022-10-15T18:34:16.935Z,954
2022-10-15T18:39:46.098Z,958
2022-10-15T18:45:16.249Z,959
2022-10-15T18:56:15.590Z,960
2022-10-15T19:01:45.835Z,962
2022-10-15T19:07:14.969Z,967
2022-10-15T19:12:45.101Z,968
2022-10-15T19:18:15.278Z,972
2022-10-15T19:23:44.512Z,973
2022-10-15T19:29:14.668Z,973
2022-10-15T19:34:44.862Z,971
2022-10-15T19:40:14.067Z,968
2022-10-15T19:45:44.188Z,980
2022-10-15T19:51:13.366Z,972
2022-10-15T19:56:43.519Z,967
2022-10-15T20:02:13.630Z,979
2022-10-15T20:07:42.795Z,972
2022-10-15T20:13:13.014Z,974
2022-10-15T20:18:43.187Z,974
2022-10-15T20:24:12.367Z,969
2022-10-15T20:29:42.587Z,968
2022-10-15T20:35:11.802Z,968
2022-10-15T20:40:42.010Z,969
2022-10-15T20:46:12.217Z,975
2022-10-15T20:51:41.365Z,977
2022-10-15T20:57:11.577Z,969
2022-10-15T21:02:41.815Z,972
2022-10-15T21:08:11.000Z,975
2022-10-15T21:13:41.210Z,971
2022-10-15T21:19:10.427Z,977
2022-10-15T21:24:40.603Z,974
2022-10-15T21:30:10.788Z,980
2022-10-15T21:35:40.075Z,973
2022-10-15T21:41:10.221Z,968
2022-10-15T21:46:39.445Z,973
2022-10-15T21:52:09.671Z,966
2022-10-15T21:57:39.849Z,958
2022-10-15T22:03:09.015Z,963
2022-10-15T22:08:39.230Z,967
2022-10-15T22:14:09.367Z,970
2022-10-15T22:19:38.547Z,968
2022-10-15T22:25:08.698Z,968
2022-10-15T22:30:37.832Z,962
2022-10-15T22:36:07.970Z,962
2022-10-15T22:41:38.172Z,967
2022-10-15T22:47:07.289Z,961
2022-10-15T22:52:37.512Z,965
2022-10-15T22:58:07.710Z,969
2022-10-15T23:03:36.852Z,966
2022-10-15T23:09:07.073Z,971
2022-10-15T23:14:37.229Z,969
2022-10-15T23:20:06.464Z,965
2022-10-15T23:25:36.610Z,969
2022-10-15T23:31:06.841Z,976
2022-10-15T23:36:36.048Z,977
2022-10-15T23:42:06.200Z,972
2022-10-15T23:47:35.445Z,972
2022-10-15T23:53:05.688Z,969
2022-10-15T23:58:35.871Z,969
